Greenwood, SC

6:57 AM EDT on August 31, 2015 (GMT -0400)
Cherokee Hills | | Change Station
CLOSE
Current Station
Personal Weather Station
Location: Greenwood, SC
Elevation: 554 ft
Nearby Weather Stations

Elev 554 ft 34.24 °N, 82.17 °W | Updated 20 seconds ago

Overcast
Overcast
66.4 °F
Feels Like 66.4 °F
N
0.0
Wind Variable Wind from North
Gusts 1.0 mph

Today
High -- | Low -- °F
--% Chance of Precip.
Yesterday
High -- | Low -- °F
Precip. -- in
7:01 AM 7:56 PM
Waning Gibbous, 96% visible
Pressure 30.11 in
Visibility 4.0 miles
Clouds Overcast 200 ft
Dew Point 65 °F
Humidity 96%
Rainfall in
Snow Depth Not available.
UV 0 out of 12
Pollen 4.30 out of 12
Air Quality Not available.
Flu Activity Not available.
METAR KGRD 311013Z AUTO 36004KT 4SM BR OVC002 19/19 A3011 RMK AO2 T01940189
Pressure 30.11 in
Visibility 4.0 miles
Clouds Overcast 200 ft
Dew Point 65 °F
Humidity 96%
Rainfall in
Snow Depth Not available.
UV 0 out of 12
Pollen 4.30 out of 12
Air Quality Not available.
Flu Activity Not available.
METAR KGRD 311013Z AUTO 36004KT 4SM BR OVC002 19/19 A3011 RMK AO2 T01940189

10-Day Weather Forecast

×

Almanac

Astronomy

Aug. 31, 2015 Rise Set
Actual Time
Civil Twilight
Nautical Twilight
Astronomical Twilight
Moon
Length of Visible Light
Length of Day
Tomorrow will be .
, % of the Moon is Illuminated

Today's Extremes

State Highs State Lows

Community

WunderPhotos

Upload Photos

1,851,227 photos uploaded!

WunderBlogs® & News

Nearby

Air Quality

  Air Quality AQ Index Pollutant
Not available.

Snow Depth

Station Depth Elevation

Earthquake Activity

City Distance Mag. Time & Date
Minimum magnitude displayed is 2.5.

Coastal Water Temperatures

Place Temperature

Stations

Nearby Weather Stations

Station Location Temp. Windchill Dew Point Humidity Wind Precip. Elev Updated Type